Time;durP1;ratioP1;P1;durP2;ratioP2;P2;SDS_P1;SDS_P2;PMS_P1;PMS_P2;Temp;Humidity;BMP_temperature;BMP_pressure;BME280_temperature;BME280_humidity;BME280_pressure;Samples;Min_cycle;Max_cycle;Signal;HPM_P1;HPM_P2
2021/12/07 00:02:13;;;;;;;9.90;3.47;;;6.50;99.90;;;;;;5011835;28;20704;-24
2021/12/07 00:04:44;;;;;;;7.03;3.30;;;6.60;99.90;;;;;;5011785;28;20201;-24
2021/12/07 00:07:14;;;;;;;10.67;3.33;;;6.50;99.90;;;;;;5011536;28;20700;-24
2021/12/07 00:09:49;;;;;;;10.70;3.60;;;6.60;99.90;;;;;;5011145;28;20197;-24
2021/12/07 00:12:17;;;;;;;11.30;3.60;;;6.50;99.90;;;;;;5011488;28;20558;-24
2021/12/07 00:15:01;;;;;;;10.53;3.40;;;6.60;99.90;;;;;;5010826;28;20219;-24
2021/12/07 00:17:32;;;;;;;8.67;3.33;;;6.60;99.90;;;;;;5011176;28;20200;-24
2021/12/07 00:20:01;;;;;;;9.03;3.20;;;6.60;99.90;;;;;;5011590;28;20554;-26
2021/12/07 00:22:28;;;;;;;7.77;3.27;;;6.60;99.90;;;;;;5009521;28;20623;-26
2021/12/07 00:25:01;;;;;;;11.80;3.50;;;6.60;99.90;;;;;;5011302;28;20206;-26
2021/12/07 00:27:28;;;;;;;12.37;3.90;;;6.60;99.90;;;;;;5011297;28;20204;-26
2021/12/07 00:29:55;;;;;;;8.23;3.30;;;6.60;99.90;;;;;;5012088;28;20209;-26
2021/12/07 00:32:29;;;;;;;9.47;3.37;;;6.60;99.90;;;;;;5031072;28;20224;-24
2021/12/07 00:37:53;;;;;;;11.40;3.50;;;6.70;99.90;;;;;;5009174;28;20205;-24
2021/12/07 00:40:24;;;;;;;13.53;3.43;;;6.60;99.90;;;;;;5011595;28;20205;-24
2021/12/07 00:42:52;;;;;;;9.87;2.87;;;6.60;99.90;;;;;;5009737;28;20316;-23
2021/12/07 00:45:21;;;;;;;13.87;3.40;;;6.70;99.90;;;;;;5010927;28;20240;-24
2021/12/07 00:47:51;;;;;;;9.00;3.40;;;6.60;99.90;;;;;;5011056;28;20256;-24
2021/12/07 00:50:20;;;;;;;10.37;3.10;;;6.70;99.90;;;;;;5010571;28;20238;-24
2021/12/07 00:52:51;;;;;;;7.53;2.77;;;6.70;99.90;;;;;;5024830;28;20241;-24
2021/12/07 00:55:26;;;;;;;13.73;3.50;;;6.70;99.90;;;;;;5010608;28;20197;-24
2021/12/07 00:57:56;;;;;;;7.97;3.37;;;6.70;99.90;;;;;;5024499;28;20753;-24
2021/12/07 01:00:26;;;;;;;14.23;3.40;;;6.70;99.90;;;;;;5009162;28;20221;-24
2021/12/07 01:02:54;;;;;;;8.97;3.20;;;6.70;99.90;;;;;;5025454;28;20208;-23
2021/12/07 01:05:28;;;;;;;13.97;3.10;;;6.80;99.90;;;;;;5016348;28;20210;-24
2021/12/07 01:24:41;;;;;;;8.10;3.57;;;6.80;99.90;;;;;;5029880;28;20294;-24
2021/12/07 01:27:19;;;;;;;6.77;2.90;;;6.80;99.90;;;;;;5027857;28;20594;-24
2021/12/07 01:29:54;;;;;;;6.93;3.07;;;6.80;99.90;;;;;;5023816;28;20224;-24
2021/12/07 01:37:35;;;;;;;7.30;3.47;;;6.80;99.90;;;;;;5029197;28;20201;-24
2021/12/07 01:43:25;;;;;;;9.93;3.20;;;6.80;99.90;;;;;;5009223;28;20236;-24
2021/12/07 02:01:53;;;;;;;8.23;2.43;;;6.80;99.90;;;;;;5029070;28;20213;-24
2021/12/07 02:04:23;;;;;;;12.73;2.50;;;6.80;99.90;;;;;;5028683;28;20204;-24
2021/12/07 02:06:51;;;;;;;10.73;2.63;;;6.70;99.90;;;;;;5028674;28;20193;-24
2021/12/07 02:09:18;;;;;;;7.80;2.47;;;6.70;99.90;;;;;;5028747;28;20232;-24
2021/12/07 02:11:50;;;;;;;9.90;2.80;;;6.70;99.90;;;;;;5026376;28;20240;-24
2021/12/07 02:14:18;;;;;;;9.67;2.77;;;6.80;99.90;;;;;;5016237;28;20237;-24
2021/12/07 02:16:53;;;;;;;11.93;2.90;;;6.80;99.90;;;;;;5010956;28;20684;-24
2021/12/07 02:19:21;;;;;;;9.27;2.70;;;6.70;99.90;;;;;;5028105;28;20220;-24
2021/12/07 02:21:49;;;;;;;8.97;2.87;;;6.70;99.90;;;;;;5023544;28;20270;-24
2021/12/07 02:24:16;;;;;;;9.90;2.63;;;6.80;99.90;;;;;;5027709;28;20235;-24
2021/12/07 02:26:46;;;;;;;8.77;2.57;;;6.80;99.90;;;;;;5028963;28;20213;-24
2021/12/07 02:29:17;;;;;;;19.07;3.33;;;6.70;99.90;;;;;;5026523;28;20221;-24
2021/12/07 02:31:45;;;;;;;10.13;3.10;;;6.70;99.90;;;;;;5027849;28;20247;-24
2021/12/07 02:34:13;;;;;;;7.50;2.47;;;6.70;99.90;;;;;;5028536;28;20201;-24
2021/12/07 02:36:41;;;;;;;9.10;2.87;;;6.70;99.90;;;;;;5028668;28;20204;-24
2021/12/07 02:39:15;;;;;;;6.90;2.80;;;6.70;99.90;;;;;;5026693;28;20209;-24
2021/12/07 02:41:42;;;;;;;9.53;2.93;;;6.70;99.90;;;;;;5028184;28;20582;-24
2021/12/07 02:44:12;;;;;;;8.43;3.00;;;6.70;99.90;;;;;;5026205;28;20201;-24
2021/12/07 02:46:39;;;;;;;11.67;3.53;;;6.70;99.90;;;;;;5026686;28;20312;-24
2021/12/07 02:49:10;;;;;;;15.43;3.47;;;6.70;99.90;;;;;;5028135;28;20211;-24
2021/12/07 02:51:37;;;;;;;9.07;2.87;;;6.60;99.90;;;;;;5028222;28;20236;-24
2021/12/07 02:54:07;;;;;;;9.67;3.27;;;6.60;99.90;;;;;;5027587;28;20208;-24
2021/12/07 02:56:34;;;;;;;7.03;3.00;;;6.60;99.90;;;;;;5028333;28;20228;-24
2021/12/07 02:59:03;;;;;;;8.10;2.97;;;6.60;99.90;;;;;;5027386;28;20544;-24
2021/12/07 03:01:41;;;;;;;11.30;2.90;;;6.60;99.90;;;;;;5028102;28;20304;-24
2021/12/07 03:04:16;;;;;;;7.10;2.93;;;6.60;99.90;;;;;;5027666;28;20208;-24
2021/12/07 03:07:02;;;;;;;10.10;2.90;;;6.60;99.90;;;;;;5028149;28;20250;-24
2021/12/07 03:26:12;;;;;;;9.50;2.67;;;6.60;99.90;;;;;;5008290;28;20198;-24
2021/12/07 03:28:46;;;;;;;8.60;2.20;;;6.50;99.90;;;;;;5007034;28;20629;-24
2021/12/07 03:31:15;;;;;;;8.67;2.40;;;6.50;99.90;;;;;;5008162;28;21027;-24
2021/12/07 03:33:43;;;;;;;7.73;3.07;;;6.50;99.90;;;;;;5011163;28;20270;-24
2021/12/07 03:36:15;;;;;;;7.77;2.73;;;6.50;99.90;;;;;;5012222;28;20201;-24
2021/12/07 03:38:42;;;;;;;10.00;2.83;;;6.50;99.90;;;;;;5012160;28;20687;-24
2021/12/07 03:41:12;;;;;;;7.07;2.33;;;6.50;99.90;;;;;;5012069;28;20303;-24
2021/12/07 03:43:42;;;;;;;9.10;2.50;;;6.50;99.90;;;;;;5011110;28;20598;-24
2021/12/07 03:46:11;;;;;;;7.27;2.17;;;6.50;99.90;;;;;;5011898;28;20201;-24
2021/12/07 03:48:41;;;;;;;11.50;2.50;;;6.50;99.90;;;;;;5011662;28;20304;-24
2021/12/07 03:51:09;;;;;;;7.43;2.67;;;6.40;99.90;;;;;;5011610;28;20237;-24
2021/12/07 03:53:37;;;;;;;5.83;2.10;;;6.40;99.90;;;;;;5011389;28;20739;-24
2021/12/07 03:56:05;;;;;;;8.00;2.10;;;6.40;99.90;;;;;;5031269;28;20228;-24
2021/12/07 03:58:33;;;;;;;10.13;2.50;;;6.30;99.90;;;;;;5029172;28;20205;-24
2021/12/07 04:01:02;;;;;;;8.23;2.00;;;6.30;99.90;;;;;;5031027;28;20235;-24
2021/12/07 04:03:33;;;;;;;12.23;2.30;;;6.30;99.90;;;;;;5029927;28;20501;-24
2021/12/07 04:06:06;;;;;;;6.80;1.83;;;6.30;99.90;;;;;;5031871;28;20278;-24
2021/12/07 04:08:38;;;;;;;7.00;2.27;;;6.20;99.90;;;;;;5030940;28;20205;-24
2021/12/07 04:11:06;;;;;;;6.90;1.80;;;6.20;99.90;;;;;;5035529;28;20200;-24
2021/12/07 04:13:37;;;;;;;7.40;2.50;;;6.10;99.90;;;;;;5030366;28;20201;-24
2021/12/07 04:16:05;;;;;;;6.50;2.07;;;6.20;99.90;;;;;;5031171;28;20571;-24
2021/12/07 04:18:35;;;;;;;7.60;2.10;;;6.10;99.90;;;;;;5029620;28;20224;-26
2021/12/07 04:21:08;;;;;;;8.17;1.93;;;6.10;99.90;;;;;;5031128;28;20209;-26
2021/12/07 04:23:36;;;;;;;8.70;2.20;;;6.10;99.90;;;;;;5030447;28;20208;-26
2021/12/07 04:26:07;;;;;;;8.93;1.93;;;6.00;99.90;;;;;;5030952;28;20213;-26
2021/12/07 04:28:35;;;;;;;9.80;2.20;;;6.00;99.90;;;;;;5029486;28;20315;-26
2021/12/07 04:31:04;;;;;;;9.33;2.57;;;6.00;99.90;;;;;;5031086;28;20225;-26
2021/12/07 04:33:33;;;;;;;11.17;2.13;;;6.00;99.90;;;;;;5030557;28;20284;-26
2021/12/07 04:36:05;;;;;;;8.53;1.97;;;6.00;99.90;;;;;;5029485;28;20692;-26
2021/12/07 04:38:33;;;;;;;6.53;2.13;;;5.90;99.90;;;;;;5030005;28;20224;-26
2021/12/07 04:41:00;;;;;;;9.27;2.57;;;5.90;99.90;;;;;;5030961;28;20687;-26
2021/12/07 04:43:28;;;;;;;9.50;1.80;;;5.90;99.90;;;;;;5028206;28;20240;-26
2021/12/07 04:46:05;;;;;;;8.20;2.00;;;5.90;99.90;;;;;;5029071;28;20255;-26
2021/12/07 04:48:59;;;;;;;9.40;1.83;;;5.80;99.90;;;;;;5013876;28;20212;-26
2021/12/07 04:59:38;;;;;;;6.50;1.83;;;5.70;99.90;;;;;;5029241;28;20209;-25
2021/12/07 05:02:08;;;;;;;10.00;2.10;;;5.70;99.90;;;;;;5026359;28;20302;-26
2021/12/07 05:04:37;;;;;;;9.53;2.60;;;5.70;99.90;;;;;;5014239;28;20205;-26
2021/12/07 05:07:14;;;;;;;9.57;2.13;;;5.70;99.90;;;;;;5010007;28;20240;-24
2021/12/07 05:12:28;;;;;;;7.20;1.77;;;5.60;99.90;;;;;;5010351;28;20240;-24
2021/12/07 05:15:13;;;;;;;6.63;2.07;;;5.60;99.90;;;;;;5009470;28;20210;-24
2021/12/07 05:18:02;;;;;;;10.07;2.00;;;5.60;99.90;;;;;;5010234;28;20236;-24
2021/12/07 05:39:52;;;;;;;8.23;2.17;;;5.40;99.90;;;;;;5009991;28;20660;-24
2021/12/07 05:42:22;;;;;;;10.27;2.23;;;5.40;99.90;;;;;;5009780;28;20224;-24
2021/12/07 05:44:51;;;;;;;10.53;2.33;;;5.40;99.90;;;;;;5008872;28;20209;-24
2021/12/07 05:47:24;;;;;;;7.00;1.93;;;5.30;99.90;;;;;;5007961;28;20397;-24
2021/12/07 05:49:52;;;;;;;9.27;2.20;;;5.40;99.90;;;;;;5007841;28;20291;-24
2021/12/07 05:52:22;;;;;;;6.47;1.67;;;5.30;99.90;;;;;;5009114;28;20244;-24
2021/12/07 05:54:49;;;;;;;8.00;2.20;;;5.30;99.90;;;;;;5009465;28;20341;-24
2021/12/07 05:57:16;;;;;;;8.13;2.20;;;5.30;99.90;;;;;;5009426;28;20206;-24
2021/12/07 05:59:43;;;;;;;10.47;1.80;;;5.30;99.90;;;;;;5020217;28;20674;-24
2021/12/07 06:02:13;;;;;;;12.43;2.30;;;5.30;99.90;;;;;;5029314;28;20215;-24
2021/12/07 06:04:43;;;;;;;7.63;2.40;;;5.30;99.90;;;;;;5027066;28;20200;-24
2021/12/07 06:07:10;;;;;;;8.87;2.20;;;5.20;99.90;;;;;;5014409;28;20217;-24
2021/12/07 06:09:40;;;;;;;10.17;1.97;;;5.20;99.90;;;;;;5025841;28;20668;-24
2021/12/07 06:12:10;;;;;;;7.20;2.27;;;5.20;99.90;;;;;;5013671;28;20218;-24
2021/12/07 06:14:42;;;;;;;10.10;2.20;;;5.20;99.90;;;;;;5013683;28;20212;-24
2021/12/07 06:17:13;;;;;;;11.73;2.33;;;5.20;99.90;;;;;;5016233;28;20209;-26
2021/12/07 06:19:40;;;;;;;11.03;2.50;;;5.20;99.90;;;;;;5022656;28;20208;-25
2021/12/07 06:22:09;;;;;;;9.53;2.60;;;5.10;99.90;;;;;;5018353;28;20719;-26
2021/12/07 06:24:38;;;;;;;13.07;2.57;;;5.10;99.90;;;;;;5028355;28;20688;-26
2021/12/07 06:27:05;;;;;;;7.43;2.40;;;5.10;99.90;;;;;;5028100;28;20240;-26
2021/12/07 06:29:33;;;;;;;9.43;2.57;;;5.10;99.90;;;;;;5027726;28;20205;-24
2021/12/07 06:32:00;;;;;;;9.37;2.80;;;5.10;99.90;;;;;;5028448;28;20831;-24
2021/12/07 06:34:28;;;;;;;8.97;2.70;;;5.10;99.90;;;;;;5020979;28;20655;-24
2021/12/07 06:36:55;;;;;;;8.27;2.40;;;5.10;99.90;;;;;;5025406;28;20212;-24
2021/12/07 06:39:22;;;;;;;13.50;3.13;;;5.10;99.90;;;;;;5028182;28;20235;-24
2021/12/07 06:41:50;;;;;;;10.50;2.53;;;5.00;99.90;;;;;;5025985;28;20744;-24
2021/12/07 06:44:17;;;;;;;6.47;2.17;;;5.00;99.90;;;;;;5022530;28;20210;-24
2021/12/07 06:46:50;;;;;;;8.40;2.87;;;5.00;99.90;;;;;;5017878;28;20717;-24
2021/12/07 06:49:21;;;;;;;11.73;2.63;;;5.00;99.90;;;;;;5010741;28;20573;-25
2021/12/07 06:51:49;;;;;;;11.57;2.70;;;5.00;99.90;;;;;;5012335;28;20217;-24
2021/12/07 06:54:16;;;;;;;10.60;2.60;;;5.00;99.90;;;;;;5012033;28;20198;-24
2021/12/07 06:56:44;;;;;;;10.70;2.50;;;5.00;99.90;;;;;;5015059;28;20570;-24
2021/12/07 06:59:11;;;;;;;11.80;2.43;;;4.90;99.90;;;;;;5026396;28;20205;-24
2021/12/07 07:01:38;;;;;;;11.27;3.47;;;5.00;99.90;;;;;;5023857;28;20710;-24
2021/12/07 07:04:08;;;;;;;8.33;2.60;;;4.90;99.90;;;;;;5017059;28;20254;-24
2021/12/07 07:06:38;;;;;;;8.47;2.53;;;4.90;99.90;;;;;;5021242;28;20536;-24
2021/12/07 07:09:06;;;;;;;11.87;3.30;;;4.90;99.90;;;;;;5021354;28;20228;-24
2021/12/07 07:11:33;;;;;;;11.40;2.93;;;4.90;99.90;;;;;;5013224;28;20181;-24
2021/12/07 07:14:01;;;;;;;11.87;2.67;;;4.90;99.90;;;;;;5007823;28;20791;-24
2021/12/07 07:16:31;;;;;;;10.70;2.83;;;4.90;99.90;;;;;;5014172;28;20216;-24
2021/12/07 07:18:59;;;;;;;8.93;3.43;;;4.90;99.90;;;;;;5014891;28;20218;-24
2021/12/07 07:21:26;;;;;;;9.93;2.90;;;4.80;99.90;;;;;;5015350;28;20203;-24
2021/12/07 07:23:54;;;;;;;10.07;2.93;;;4.80;99.90;;;;;;5015759;28;20204;-24
2021/12/07 07:26:22;;;;;;;12.07;2.73;;;4.80;99.90;;;;;;5019358;28;20217;-24
2021/12/07 07:28:49;;;;;;;11.57;3.43;;;4.80;99.90;;;;;;5014016;28;20255;-24
2021/12/07 07:31:19;;;;;;;8.07;2.73;;;4.80;99.90;;;;;;5020477;28;20247;-24
2021/12/07 07:33:47;;;;;;;14.63;3.10;;;4.80;99.90;;;;;;5008384;28;20708;-24
2021/12/07 07:36:14;;;;;;;11.20;3.10;;;4.80;99.90;;;;;;5014201;28;20231;-24
2021/12/07 07:38:44;;;;;;;11.23;3.53;;;4.80;99.90;;;;;;5021232;28;20201;-24
2021/12/07 07:41:11;;;;;;;8.77;2.80;;;4.80;99.90;;;;;;5021222;28;20288;-24
2021/12/07 07:43:39;;;;;;;15.47;3.47;;;4.80;99.90;;;;;;5010145;28;20743;-24
2021/12/07 07:46:08;;;;;;;15.17;3.73;;;4.70;99.90;;;;;;5012116;28;20490;-24
2021/12/07 07:48:36;;;;;;;11.33;3.17;;;4.70;99.90;;;;;;5018406;28;20201;-24
2021/12/07 07:51:04;;;;;;;10.03;3.40;;;4.70;99.90;;;;;;5008205;28;20244;-24
2021/12/07 07:53:31;;;;;;;13.90;3.93;;;4.70;99.90;;;;;;5016368;28;20703;-24
2021/12/07 07:55:59;;;;;;;10.70;3.33;;;4.70;99.90;;;;;;5014967;28;20209;-24
2021/12/07 07:58:26;;;;;;;9.97;4.10;;;4.70;99.90;;;;;;5013671;28;20652;-24
2021/12/07 08:00:53;;;;;;;11.07;3.47;;;4.70;99.90;;;;;;5010255;28;20297;-24
2021/12/07 08:03:22;;;;;;;10.30;3.40;;;4.70;99.90;;;;;;5009534;28;20316;-24
2021/12/07 08:05:50;;;;;;;9.97;3.50;;;4.70;99.90;;;;;;5022652;28;20211;-24
2021/12/07 08:08:19;;;;;;;9.07;3.77;;;4.70;99.90;;;;;;5010314;28;20264;-24
2021/12/07 08:10:51;;;;;;;12.37;3.40;;;4.70;99.90;;;;;;5018737;28;20230;-24
2021/12/07 08:13:19;;;;;;;11.80;4.17;;;4.70;99.90;;;;;;5025034;28;20577;-24
2021/12/07 08:15:49;;;;;;;14.53;3.60;;;4.70;99.90;;;;;;5014607;28;20268;-24
2021/12/07 08:18:16;;;;;;;14.47;3.87;;;4.70;99.90;;;;;;5007917;28;20201;-24
2021/12/07 08:20:49;;;;;;;18.60;4.23;;;4.70;99.90;;;;;;5011228;28;20217;-24
2021/12/07 08:23:16;;;;;;;12.20;4.13;;;4.70;99.90;;;;;;5008658;28;20751;-24
2021/12/07 08:25:47;;;;;;;9.77;3.30;;;4.70;99.90;;;;;;5011756;28;20697;-24
2021/12/07 08:28:19;;;;;;;11.07;3.57;;;4.70;99.90;;;;;;5010225;28;20731;-24
2021/12/07 08:30:52;;;;;;;9.13;3.77;;;4.70;99.90;;;;;;5012506;28;20212;-24
2021/12/07 08:33:20;;;;;;;11.77;3.53;;;4.70;99.90;;;;;;5010386;28;20699;-24
2021/12/07 08:35:48;;;;;;;12.70;4.00;;;4.80;99.90;;;;;;5022482;28;20209;-24
2021/12/07 08:38:15;;;;;;;14.30;4.00;;;4.80;99.90;;;;;;5027343;28;20288;-24
2021/12/07 08:40:45;;;;;;;16.60;3.87;;;4.80;99.90;;;;;;5027731;28;20255;-24
2021/12/07 08:43:15;;;;;;;14.77;3.97;;;4.80;99.90;;;;;;5021713;28;20492;-24
2021/12/07 08:45:44;;;;;;;14.67;3.53;;;4.80;99.90;;;;;;5025452;28;20232;-24
2021/12/07 08:48:12;;;;;;;12.93;3.70;;;4.80;99.90;;;;;;5030421;28;20248;-24
2021/12/07 08:50:42;;;;;;;13.73;3.37;;;4.90;99.90;;;;;;5029964;28;20248;-24
2021/12/07 08:53:13;;;;;;;10.53;2.83;;;4.90;99.90;;;;;;5028331;28;20248;-24
2021/12/07 09:01:20;;;;;;;6.87;2.93;;;5.00;99.90;;;;;;5011197;28;20208;-24
2021/12/07 09:03:50;;;;;;;11.23;3.10;;;5.00;99.90;;;;;;5014366;28;20209;-24
2021/12/07 09:06:17;;;;;;;12.50;3.00;;;5.00;99.90;;;;;;5025269;28;20205;-24
2021/12/07 09:08:47;;;;;;;9.90;3.23;;;5.10;99.90;;;;;;5026607;28;20693;-24
2021/12/07 09:11:16;;;;;;;8.83;2.67;;;5.10;99.90;;;;;;5024930;28;20217;-24
2021/12/07 09:13:44;;;;;;;7.90;2.60;;;5.10;99.90;;;;;;5008817;28;20248;-24
2021/12/07 09:16:14;;;;;;;13.30;2.90;;;5.10;99.90;;;;;;5012235;28;20654;-24
2021/12/07 09:18:42;;;;;;;10.93;2.70;;;5.20;99.90;;;;;;5011013;28;20291;-24
2021/12/07 09:21:11;;;;;;;11.67;2.73;;;5.20;99.90;;;;;;5010572;28;20205;-24
2021/12/07 09:23:41;;;;;;;12.77;2.67;;;5.20;99.90;;;;;;5026614;28;20225;-24
2021/12/07 09:26:10;;;;;;;14.17;3.37;;;5.30;99.90;;;;;;5026796;28;20558;-24
2021/12/07 09:28:39;;;;;;;13.47;3.03;;;5.30;99.90;;;;;;5037877;28;20597;-24
2021/12/07 09:31:09;;;;;;;12.63;3.53;;;5.30;99.90;;;;;;5018931;28;20712;-24
2021/12/07 09:33:37;;;;;;;13.80;3.10;;;5.40;99.90;;;;;;5009657;28;20213;-24
2021/12/07 09:36:06;;;;;;;12.33;2.70;;;5.40;99.90;;;;;;5020820;28;20201;-24
2021/12/07 09:38:34;;;;;;;6.97;2.83;;;5.40;99.90;;;;;;5009060;28;20295;-24
2021/12/07 09:41:06;;;;;;;11.10;3.00;;;5.50;99.90;;;;;;5028839;28;20201;-24
2021/12/07 09:43:34;;;;;;;8.50;2.47;;;5.50;99.90;;;;;;5011051;28;20209;-24
2021/12/07 09:46:07;;;;;;;13.23;2.97;;;5.50;99.90;;;;;;5022377;28;20221;-24
2021/12/07 09:48:35;;;;;;;11.77;3.27;;;5.60;99.90;;;;;;5010120;28;20200;-24
2021/12/07 09:51:07;;;;;;;11.90;3.10;;;5.60;99.90;;;;;;5012039;28;20237;-24
2021/12/07 09:53:35;;;;;;;13.30;3.03;;;5.60;99.90;;;;;;5040336;28;20320;-24
2021/12/07 09:56:08;;;;;;;12.23;3.70;;;5.70;99.90;;;;;;5027279;28;20236;-24
2021/12/07 09:58:39;;;;;;;11.83;3.23;;;5.70;99.90;;;;;;5027189;28;20301;-24
2021/12/07 10:01:09;;;;;;;10.37;2.93;;;5.70;99.90;;;;;;5009954;28;20193;-24
2021/12/07 10:03:39;;;;;;;10.37;3.00;;;5.70;99.90;;;;;;5009643;28;20632;-24
2021/12/07 10:06:11;;;;;;;10.97;3.33;;;5.80;99.90;;;;;;5030864;28;20209;-24
2021/12/07 10:08:44;;;;;;;11.07;3.90;;;5.80;99.90;;;;;;5019997;28;20225;-24
2021/12/07 10:11:12;;;;;;;13.93;3.97;;;5.90;99.90;;;;;;5024504;28;20221;-24
2021/12/07 10:13:42;;;;;;;15.40;4.00;;;5.90;99.90;;;;;;5007897;28;20222;-24
2021/12/07 10:16:13;;;;;;;10.93;3.90;;;5.90;99.90;;;;;;5016964;28;20575;-24
2021/12/07 10:18:44;;;;;;;13.20;4.70;;;6.00;99.90;;;;;;5009312;28;20213;-24
2021/12/07 10:21:13;;;;;;;13.20;4.33;;;6.00;99.90;;;;;;5023769;28;20204;-24
2021/12/07 10:24:06;;;;;;;11.17;4.00;;;6.10;99.90;;;;;;5017649;28;20225;-24
2021/12/07 10:26:41;;;;;;;13.23;4.07;;;6.10;99.90;;;;;;5013253;28;20295;-24
2021/12/07 10:29:11;;;;;;;11.47;4.30;;;6.20;99.90;;;;;;5013430;28;20328;-24
2021/12/07 10:31:44;;;;;;;10.33;3.90;;;6.20;99.90;;;;;;5020723;28;20746;-24
2021/12/07 10:34:20;;;;;;;11.63;3.73;;;6.20;99.90;;;;;;5012473;28;20692;-23
2021/12/07 10:37:09;;;;;;;10.93;3.70;;;6.30;99.90;;;;;;5025288;28;20529;-23
2021/12/07 10:39:51;;;;;;;13.00;4.40;;;6.30;99.90;;;;;;5016988;28;20651;-23
2021/12/07 10:42:27;;;;;;;14.57;3.53;;;6.30;99.90;;;;;;5015350;28;20193;-23
2021/12/07 10:45:02;;;;;;;8.83;3.47;;;6.40;99.90;;;;;;5017837;28;20268;-23
2021/12/07 10:47:30;;;;;;;12.40;3.27;;;6.40;99.90;;;;;;5023269;28;20197;-23
2021/12/07 10:49:59;;;;;;;10.27;3.20;;;6.40;99.90;;;;;;5025133;28;20240;-23
2021/12/07 10:52:35;;;;;;;13.77;4.07;;;6.50;99.90;;;;;;5022497;28;20349;-23
2021/12/07 10:55:03;;;;;;;14.30;3.50;;;6.50;99.90;;;;;;5008894;28;20890;-23
2021/12/07 10:57:51;;;;;;;13.20;3.40;;;6.60;99.90;;;;;;5008668;28;20201;-23
2021/12/07 11:00:29;;;;;;;11.60;3.53;;;6.60;99.90;;;;;;5015532;28;20221;-23
2021/12/07 11:03:02;;;;;;;12.97;2.97;;;6.60;99.90;;;;;;5008127;28;20201;-23
2021/12/07 11:05:33;;;;;;;9.53;3.47;;;6.70;99.90;;;;;;5013540;28;20205;-23
2021/12/07 11:08:02;;;;;;;13.47;3.23;;;6.70;99.90;;;;;;5009569;28;20212;-23
2021/12/07 11:10:39;;;;;;;8.77;3.00;;;6.70;99.90;;;;;;5013415;28;20201;-23
2021/12/07 11:13:23;;;;;;;9.03;2.70;;;6.70;99.90;;;;;;5021439;28;20233;-23
2021/12/07 11:15:58;;;;;;;10.77;3.10;;;6.80;99.90;;;;;;5015130;28;20201;-23
2021/12/07 11:18:41;;;;;;;10.33;3.40;;;6.80;99.90;;;;;;5019262;28;20687;-23
2021/12/07 11:21:15;;;;;;;11.20;3.50;;;6.80;99.90;;;;;;5013260;28;20216;-23
2021/12/07 11:23:52;;;;;;;12.23;3.90;;;6.80;99.90;;;;;;5026826;28;20307;-23
2021/12/07 11:31:51;;;;;;;13.57;3.27;;;6.80;99.90;;;;;;5016117;28;20223;-23
2021/12/07 11:34:21;;;;;;;10.70;3.17;;;6.80;99.90;;;;;;5007502;28;20252;-23
2021/12/07 11:36:55;;;;;;;8.83;3.00;;;6.80;99.90;;;;;;5010276;28;20292;-23
2021/12/07 11:39:27;;;;;;;12.50;3.93;;;6.90;99.90;;;;;;5015542;28;20210;-23
2021/12/07 11:42:06;;;;;;;11.57;3.37;;;6.90;99.90;;;;;;5019145;28;20205;-23
2021/12/07 11:44:37;;;;;;;8.90;2.87;;;6.90;99.90;;;;;;5021402;28;20200;-25
2021/12/07 11:47:06;;;;;;;10.47;2.80;;;6.90;99.90;;;;;;5013886;28;20247;-25
2021/12/07 11:49:36;;;;;;;8.00;2.80;;;6.90;99.90;;;;;;5025252;28;20246;-25
2021/12/07 11:52:07;;;;;;;9.70;3.07;;;6.90;99.90;;;;;;5019900;28;20224;-25
2021/12/07 11:54:39;;;;;;;7.90;2.80;;;6.90;99.90;;;;;;5026171;28;20228;-25
2021/12/07 11:57:09;;;;;;;10.23;3.20;;;7.00;99.90;;;;;;5030781;28;20308;-25
2021/12/07 11:59:40;;;;;;;7.97;3.07;;;7.00;99.90;;;;;;5024058;28;20199;-25
2021/12/07 12:02:13;;;;;;;8.90;2.97;;;7.00;99.90;;;;;;5025615;28;20299;-25
2021/12/07 12:04:42;;;;;;;7.27;2.33;;;7.10;99.90;;;;;;5020847;28;20221;-25
2021/12/07 12:07:10;;;;;;;9.90;2.80;;;7.10;99.90;;;;;;5021011;28;20634;-25
2021/12/07 12:09:48;;;;;;;11.37;3.60;;;7.20;99.90;;;;;;5028568;28;20382;-25
2021/12/07 12:12:33;;;;;;;12.00;2.73;;;7.30;99.90;;;;;;5024937;28;20231;-25
2021/12/07 12:15:09;;;;;;;6.53;2.70;;;7.30;99.90;;;;;;5027393;28;20247;-26
2021/12/07 12:17:55;;;;;;;9.67;2.87;;;7.30;99.90;;;;;;5012749;28;20284;-25
2021/12/07 12:20:28;;;;;;;7.90;2.70;;;7.30;99.90;;;;;;5013697;28;20264;-25
2021/12/07 12:23:13;;;;;;;8.17;2.87;;;7.40;99.90;;;;;;5025976;28;20251;-25
2021/12/07 12:25:40;;;;;;;7.33;3.13;;;7.40;99.90;;;;;;5011632;28;20216;-25
2021/12/07 12:28:07;;;;;;;9.90;3.67;;;7.40;99.90;;;;;;5029127;28;20205;-25
2021/12/07 12:30:40;;;;;;;10.67;3.33;;;7.40;99.90;;;;;;5016098;28;20254;-25
2021/12/07 12:33:13;;;;;;;8.97;3.50;;;7.50;99.90;;;;;;5028680;28;20569;-25
2021/12/07 12:35:47;;;;;;;7.70;3.20;;;7.50;99.90;;;;;;5009742;28;20361;-25
2021/12/07 12:38:18;;;;;;;11.20;3.67;;;7.50;99.90;;;;;;5010156;28;20226;-25
2021/12/07 12:40:58;;;;;;;8.17;3.10;;;7.50;99.90;;;;;;5027392;28;20648;-26
2021/12/07 12:43:44;;;;;;;7.07;3.07;;;7.50;99.90;;;;;;5023624;28;20209;-25
2021/12/07 12:46:15;;;;;;;9.30;3.30;;;7.60;99.90;;;;;;5010084;28;20680;-25
2021/12/07 12:48:56;;;;;;;6.73;2.90;;;7.60;99.90;;;;;;5017626;28;20193;-25
2021/12/07 12:51:28;;;;;;;7.20;3.07;;;7.60;99.90;;;;;;5014807;28;20232;-25
2021/12/07 12:53:59;;;;;;;6.17;3.20;;;7.60;99.90;;;;;;5014977;28;20221;-25
2021/12/07 12:56:36;;;;;;;7.33;3.07;;;7.60;99.90;;;;;;5023933;28;20816;-25
2021/12/07 12:59:09;;;;;;;6.83;2.97;;;7.60;99.90;;;;;;5017302;28;20240;-25
2021/12/07 13:01:46;;;;;;;8.07;3.03;;;7.60;99.90;;;;;;5010180;28;20752;-25
2021/12/07 13:04:30;;;;;;;11.43;3.40;;;7.60;99.90;;;;;;5027607;28;20565;-25
2021/12/07 13:07:23;;;;;;;7.97;3.03;;;7.60;99.90;;;;;;5021303;28;20463;-25
2021/12/07 13:10:00;;;;;;;9.97;3.10;;;7.60;99.90;;;;;;5017800;28;20215;-24
2021/12/07 13:12:41;;;;;;;9.57;3.00;;;7.60;99.90;;;;;;5022206;28;20243;-25
2021/12/07 13:15:12;;;;;;;6.90;3.00;;;7.60;99.90;;;;;;5022629;28;20229;-25
2021/12/07 13:17:43;;;;;;;9.40;3.30;;;7.70;99.90;;;;;;5025020;28;20201;-25
2021/12/07 13:20:16;;;;;;;5.10;2.83;;;7.70;99.90;;;;;;5012975;28;20753;-25
2021/12/07 13:22:55;;;;;;;9.57;3.03;;;7.70;99.90;;;;;;5027892;28;20251;-25
2021/12/07 13:25:27;;;;;;;11.87;3.00;;;7.70;99.90;;;;;;5016666;28;20720;-25
2021/12/07 13:28:10;;;;;;;11.57;3.33;;;7.70;99.90;;;;;;5028871;28;20897;-25
2021/12/07 13:30:50;;;;;;;12.17;3.50;;;7.70;99.90;;;;;;5012111;28;20604;-25
2021/12/07 13:33:25;;;;;;;8.87;3.37;;;7.70;99.90;;;;;;5030489;28;20213;-25
2021/12/07 13:35:53;;;;;;;9.07;3.13;;;7.80;99.90;;;;;;5022091;28;20271;-25
2021/12/07 13:38:31;;;;;;;7.77;3.10;;;7.80;99.90;;;;;;5028369;28;20288;-25
2021/12/07 13:41:14;;;;;;;6.77;3.60;;;7.80;99.90;;;;;;5025515;28;20216;-25
2021/12/07 13:43:50;;;;;;;9.93;3.67;;;7.80;99.90;;;;;;5019969;28;20220;-25
2021/12/07 13:46:26;;;;;;;5.83;3.00;;;7.80;99.90;;;;;;5028779;28;20201;-25
2021/12/07 13:49:07;;;;;;;8.63;3.20;;;7.80;99.90;;;;;;5023998;28;20239;-25
2021/12/07 13:51:38;;;;;;;8.20;3.37;;;7.80;99.90;;;;;;5023055;28;20284;-25
2021/12/07 13:54:13;;;;;;;7.50;3.67;;;7.80;99.90;;;;;;5018654;28;20638;-25
2021/12/07 13:56:41;;;;;;;9.23;3.17;;;7.80;99.90;;;;;;5028796;28;20196;-25
2021/12/07 13:59:16;;;;;;;8.43;3.70;;;7.80;99.90;;;;;;5022174;28;20738;-25
2021/12/07 14:01:54;;;;;;;7.20;3.33;;;7.80;99.90;;;;;;5014214;28;20244;-25
2021/12/07 14:04:27;;;;;;;10.43;3.70;;;7.80;99.90;;;;;;5009089;28;20679;-23
2021/12/07 14:06:55;;;;;;;10.10;3.90;;;7.80;99.90;;;;;;5016674;28;20205;-23
2021/12/07 14:09:23;;;;;;;12.70;3.63;;;7.80;99.90;;;;;;5028761;28;20209;-23
2021/12/07 14:11:58;;;;;;;9.33;3.57;;;7.80;99.90;;;;;;5023448;28;20213;-23
2021/12/07 14:14:28;;;;;;;10.03;3.20;;;7.80;99.90;;;;;;5015745;28;20699;-23
2021/12/07 14:16:58;;;;;;;10.60;3.43;;;7.80;99.90;;;;;;5028301;28;20709;-23
2021/12/07 14:19:26;;;;;;;10.10;3.30;;;7.80;99.90;;;;;;5023480;28;20193;-23
2021/12/07 14:21:54;;;;;;;7.30;2.90;;;7.80;99.90;;;;;;4999360;28;20201;-23
2021/12/07 14:24:22;;;;;;;4.97;2.50;;;7.80;99.90;;;;;;5013957;28;20211;-23
2021/12/07 14:26:52;;;;;;;5.83;2.87;;;7.80;99.90;;;;;;5008493;28;20208;-23
2021/12/07 14:29:25;;;;;;;7.33;2.80;;;7.80;99.90;;;;;;5020940;28;20210;-23
2021/12/07 14:31:56;;;;;;;6.10;2.50;;;7.80;99.90;;;;;;5024045;28;20200;-23
2021/12/07 14:34:31;;;;;;;6.10;2.40;;;7.80;99.90;;;;;;5018898;28;20654;-23
2021/12/07 14:37:02;;;;;;;9.30;2.73;;;7.80;99.90;;;;;;5009287;28;20212;-23
2021/12/07 14:39:32;;;;;;;5.53;2.70;;;7.80;99.90;;;;;;5022841;28;20212;-23
2021/12/07 14:42:03;;;;;;;10.67;2.90;;;7.80;99.90;;;;;;5010408;28;20292;-23
2021/12/07 14:44:34;;;;;;;6.33;2.53;;;7.80;99.90;;;;;;5009965;28;20212;-23
2021/12/07 14:47:07;;;;;;;6.73;2.20;;;7.80;99.90;;;;;;5021167;28;20205;-23
2021/12/07 14:49:40;;;;;;;6.80;1.93;;;7.80;99.90;;;;;;5010169;28;20216;-24
2021/12/07 14:52:16;;;;;;;6.67;2.17;;;7.80;99.90;;;;;;5007327;28;20206;-23
2021/12/07 14:54:45;;;;;;;4.63;1.80;;;7.80;99.90;;;;;;5023432;28;20319;-23
2021/12/07 14:57:12;;;;;;;4.80;1.90;;;7.80;99.90;;;;;;5025204;28;20200;-23